createdAt,value
2018-05-03T00:00:04.934Z,0
2018-05-03T00:35:37.592Z,0
2018-05-03T00:36:17.982Z,0
2018-05-03T00:36:58.339Z,0
2018-05-03T00:37:38.745Z,0
2018-05-03T00:38:19.159Z,0
2018-05-03T00:38:59.543Z,0
2018-05-03T00:43:33.425Z,0
2018-05-03T00:44:14.129Z,0
2018-05-03T00:44:54.541Z,0
2018-05-03T00:45:34.955Z,0
2018-05-03T00:46:15.319Z,0
2018-05-03T00:46:55.732Z,0
2018-05-03T00:47:36.124Z,0
2018-05-03T00:48:16.545Z,0
2018-05-03T00:48:56.989Z,0
2018-05-03T00:49:37.364Z,0
2018-05-03T00:50:17.763Z,0
2018-05-03T00:50:58.228Z,0
2018-05-03T00:51:38.585Z,0
2018-05-03T00:52:19.035Z,0
2018-05-03T00:52:59.395Z,0
2018-05-03T00:53:39.811Z,0
2018-05-03T00:56:07.730Z,0
2018-05-03T00:56:48.114Z,0
2018-05-03T00:57:28.518Z,0
2018-05-03T00:58:08.951Z,0
2018-05-03T00:58:49.353Z,0
2018-05-03T00:59:29.757Z,0
2018-05-03T01:00:10.210Z,0
2018-05-03T01:00:50.613Z,0
2018-05-03T01:01:31.012Z,0
2018-05-03T01:02:11.416Z,0
2018-05-03T01:02:51.828Z,0
2018-05-03T01:03:32.335Z,0
2018-05-03T01:04:12.748Z,0
2018-05-03T01:04:53.140Z,0
2018-05-03T01:05:33.530Z,0
2018-05-03T01:06:13.956Z,0
2018-05-03T01:06:54.397Z,0
2018-05-03T01:07:34.753Z,0
2018-05-03T01:11:11.908Z,0
2018-05-03T01:11:52.281Z,0
2018-05-03T01:15:47.890Z,0
2018-05-03T01:16:28.146Z,0
2018-05-03T01:17:08.597Z,0
2018-05-03T01:17:49.027Z,0
2018-05-03T01:18:29.437Z,0
2018-05-03T01:19:09.861Z,0
2018-05-03T01:19:50.251Z,0
2018-05-03T01:20:30.642Z,0
2018-05-03T01:21:11.017Z,0
2018-05-03T01:21:51.441Z,0
2018-05-03T01:22:34.620Z,0
2018-05-03T01:23:14.999Z,0
2018-05-03T01:23:55.386Z,0
2018-05-03T01:24:35.782Z,0
2018-05-03T01:25:16.183Z,0
2018-05-03T01:25:56.581Z,0
2018-05-03T01:26:36.993Z,0
2018-05-03T01:27:17.384Z,0
2018-05-03T01:27:57.814Z,0
2018-05-03T01:28:38.276Z,0
2018-05-03T01:29:18.635Z,0
2018-05-03T01:29:59.137Z,0
2018-05-03T01:30:39.463Z,0
2018-05-03T01:31:19.877Z,0
2018-05-03T01:32:00.337Z,0
2018-05-03T01:32:40.725Z,0
2018-05-03T01:33:21.146Z,0
2018-05-03T01:34:01.522Z,0
2018-05-03T01:34:41.941Z,0
2018-05-03T01:41:35.719Z,0
2018-05-03T01:42:15.967Z,0
2018-05-03T01:42:56.337Z,0
2018-05-03T01:43:36.761Z,0
2018-05-03T01:44:17.170Z,0
2018-05-03T01:44:57.575Z,0
2018-05-03T01:45:38.009Z,0
2018-05-03T01:46:18.382Z,0
2018-05-03T01:46:58.790Z,0
2018-05-03T01:47:39.171Z,0
2018-05-03T01:48:19.573Z,0
2018-05-03T01:49:00.022Z,0
2018-05-03T01:49:40.440Z,0
2018-05-03T01:50:20.842Z,0
2018-05-03T01:51:01.229Z,0
2018-05-03T01:53:39.924Z,0
2018-05-03T01:54:20.534Z,0
2018-05-03T01:55:00.549Z,0
2018-05-03T01:55:41.087Z,0
2018-05-03T01:56:21.473Z,0
2018-05-03T01:57:01.974Z,0
2018-05-03T01:57:42.626Z,0
2018-05-03T01:58:23.205Z,0
2018-05-03T01:59:03.870Z,0
2018-05-03T01:59:44.304Z,0
2018-05-03T02:00:24.670Z,0
2018-05-03T02:01:05.047Z,0
2018-05-03T02:01:45.609Z,0
2018-05-03T02:02:25.934Z,0
2018-05-03T02:03:12.448Z,0
2018-05-03T02:03:49.372Z,0
2018-05-03T02:04:30.042Z,0
2018-05-03T02:05:10.605Z,0
2018-05-03T02:05:51.378Z,0
2018-05-03T02:06:31.743Z,0
2018-05-03T02:07:12.181Z,0
2018-05-03T02:07:52.802Z,0
2018-05-03T02:08:33.723Z,0
2018-05-03T02:09:14.740Z,0
2018-05-03T02:09:55.120Z,0
2018-05-03T02:10:35.574Z,0
2018-05-03T02:11:16.249Z,0
2018-05-03T02:11:56.750Z,0
2018-05-03T02:12:37.834Z,0
2018-05-03T02:13:18.725Z,0
2018-05-03T02:13:59.204Z,0
2018-05-03T02:14:39.846Z,0
2018-05-03T02:15:23.912Z,0
2018-05-03T02:16:04.070Z,0
2018-05-03T02:16:44.553Z,0
2018-05-03T02:17:27.311Z,0
2018-05-03T02:18:07.490Z,0
2018-05-03T02:18:50.580Z,0
2018-05-03T02:19:30.916Z,0
2018-05-03T02:20:11.340Z,0
2018-05-03T02:20:52.237Z,0
2018-05-03T02:21:32.671Z,0
2018-05-03T02:22:13.819Z,0
2018-05-03T02:22:56.017Z,0
2018-05-03T02:23:37.487Z,0
2018-05-03T02:24:18.316Z,0
2018-05-03T02:25:01.349Z,0
2018-05-03T02:25:42.803Z,0
2018-05-03T02:26:24.192Z,0
2018-05-03T02:27:07.263Z,0
2018-05-03T02:27:47.711Z,0
2018-05-03T02:28:32.946Z,0
2018-05-03T02:29:11.259Z,0
2018-05-03T02:29:55.097Z,0
2018-05-03T02:30:36.514Z,0
2018-05-03T02:31:16.755Z,0
2018-05-03T02:31:57.984Z,0
2018-05-03T02:32:39.062Z,0
2018-05-03T02:33:26.837Z,0
2018-05-03T02:34:09.451Z,0
2018-05-03T02:34:53.192Z,0
2018-05-03T02:35:38.431Z,0
2018-05-03T02:36:28.493Z,0
2018-05-03T02:37:19.723Z,0
2018-05-03T02:38:08.835Z,0
2018-05-03T02:38:59.502Z,0
2018-05-03T02:39:45.512Z,0
2018-05-03T02:40:28.313Z,0
2018-05-03T02:41:12.494Z,0
2018-05-03T02:41:56.177Z,0
2018-05-03T02:42:37.917Z,0
2018-05-03T02:43:18.040Z,0
2018-05-03T02:44:04.353Z,0
2018-05-03T02:44:49.929Z,0
2018-05-03T02:45:34.108Z,0
2018-05-03T02:46:18.064Z,0
2018-05-03T02:47:00.690Z,0
2018-05-03T02:47:41.712Z,0
2018-05-03T02:48:29.022Z,0
2018-05-03T02:49:07.080Z,0
2018-05-03T02:49:49.025Z,0
2018-05-03T02:50:29.587Z,0
2018-05-03T02:51:13.704Z,0
2018-05-03T02:51:59.837Z,0
2018-05-03T02:53:34.264Z,0
2018-05-03T02:54:18.722Z,0
2018-05-03T02:55:00.282Z,0
2018-05-03T02:55:42.126Z,0
2018-05-03T02:56:22.553Z,0
2018-05-03T02:59:54.758Z,0
2018-05-03T03:00:37.277Z,0
2018-05-03T03:01:17.664Z,0
2018-05-03T03:01:58.094Z,0
2018-05-03T03:02:38.464Z,0
2018-05-03T03:03:18.859Z,0
2018-05-03T03:03:59.262Z,0
2018-05-03T03:04:39.676Z,0
2018-05-03T03:05:20.081Z,0
2018-05-03T03:06:00.457Z,0
2018-05-03T03:06:40.853Z,0
2018-05-03T03:07:21.251Z,0
2018-05-03T03:08:01.658Z,0
2018-05-03T03:08:42.109Z,0
2018-05-03T03:09:22.534Z,0
2018-05-03T03:10:02.938Z,0
2018-05-03T03:10:43.286Z,0
2018-05-03T03:11:23.700Z,0
2018-05-03T03:12:04.071Z,0
2018-05-03T03:12:44.490Z,0
2018-05-03T03:13:24.951Z,0
2018-05-03T03:14:05.327Z,0
2018-05-03T03:14:45.802Z,0
2018-05-03T03:15:26.189Z,0
2018-05-03T03:16:06.524Z,0
2018-05-03T03:16:46.945Z,0
2018-05-03T03:17:27.343Z,0
2018-05-03T03:18:07.735Z,0
2018-05-03T03:18:48.119Z,0
2018-05-03T03:19:28.512Z,0
2018-05-03T03:20:08.916Z,0
2018-05-03T03:20:49.335Z,0
2018-05-03T03:21:29.808Z,0
2018-05-03T03:22:10.153Z,0
2018-05-03T03:22:50.591Z,0
2018-05-03T03:23:30.933Z,0
2018-05-03T03:25:45.725Z,0
2018-05-03T03:26:25.937Z,0
2018-05-03T03:27:06.475Z,0
2018-05-03T03:27:46.934Z,0
2018-05-03T03:28:27.339Z,0
2018-05-03T03:29:07.915Z,0
2018-05-03T03:29:48.392Z,0
2018-05-03T03:30:28.870Z,0
2018-05-03T03:31:09.399Z,0
2018-05-03T03:31:49.897Z,0
2018-05-03T03:32:30.325Z,0
2018-05-03T03:33:10.845Z,0
2018-05-03T03:33:51.412Z,0
2018-05-03T03:34:31.780Z,0
2018-05-03T03:35:12.256Z,0
2018-05-03T03:35:52.617Z,0
2018-05-03T03:36:33.032Z,0
2018-05-03T03:37:13.616Z,0
2018-05-03T03:37:54.047Z,0
2018-05-03T03:38:34.441Z,0
2018-05-03T03:39:14.883Z,0
2018-05-03T03:39:55.309Z,0
2018-05-03T03:40:35.771Z,0
2018-05-03T03:41:16.350Z,0
2018-05-03T03:41:56.715Z,0
2018-05-03T03:42:37.792Z,0
2018-05-03T03:43:17.897Z,0
2018-05-03T03:43:58.202Z,0
2018-05-03T03:44:39.617Z,0
2018-05-03T03:45:20.146Z,0
2018-05-03T03:46:00.495Z,0
2018-05-03T03:46:41.263Z,0
2018-05-03T03:47:21.632Z,0
2018-05-03T03:48:02.038Z,0
2018-05-03T03:48:43.577Z,0
2018-05-03T03:49:24.017Z,0
2018-05-03T03:50:04.462Z,0
2018-05-03T03:50:44.994Z,0
2018-05-03T03:51:25.710Z,0
2018-05-03T03:52:06.445Z,0
2018-05-03T03:52:46.665Z,0
2018-05-03T03:53:27.104Z,0
2018-05-03T03:54:07.540Z,0
2018-05-03T03:54:47.910Z,0
2018-05-03T03:55:29.589Z,0
2018-05-03T03:56:10.037Z,0
2018-05-03T03:56:50.477Z,0
2018-05-03T03:57:31.169Z,0
2018-05-03T03:58:11.606Z,0
2018-05-03T03:58:52.380Z,0
2018-05-03T03:59:32.755Z,0
2018-05-03T04:00:13.492Z,0
2018-05-03T04:00:54.007Z,0
2018-05-03T04:01:34.526Z,0
2018-05-03T04:02:15.299Z,0
2018-05-03T04:41:58.961Z,0
2018-05-03T04:42:39.720Z,0
2018-05-03T04:43:19.705Z,5
2018-05-03T04:44:00.388Z,5
2018-05-03T04:44:41.357Z,5
2018-05-03T04:45:23.570Z,5
2018-05-03T04:46:04.197Z,5
2018-05-03T04:46:44.645Z,5
2018-05-03T04:47:24.986Z,5
2018-05-03T04:48:06.312Z,5
2018-05-03T04:48:47.481Z,5
2018-05-03T04:49:27.924Z,5
2018-05-03T04:50:08.325Z,5
2018-05-03T04:50:48.689Z,5
2018-05-03T04:51:32.910Z,10
2018-05-03T04:52:13.268Z,10
2018-05-03T04:52:54.290Z,10
2018-05-03T04:53:36.174Z,10
2018-05-03T04:54:15.861Z,10
2018-05-03T04:54:57.307Z,10
2018-05-03T04:55:37.608Z,10
2018-05-03T04:56:18.611Z,15
2018-05-03T04:56:58.995Z,15
2018-05-03T04:57:41.343Z,15
2018-05-03T04:58:22.803Z,20
2018-05-03T04:59:03.254Z,20
2018-05-03T04:59:43.705Z,20
2018-05-03T05:00:24.274Z,20
2018-05-03T05:01:04.690Z,20
2018-05-03T05:01:46.334Z,20
2018-05-03T05:02:26.655Z,25
2018-05-03T05:03:07.025Z,25
2018-05-03T05:03:48.360Z,25
2018-05-03T05:04:28.255Z,30
2018-05-03T05:05:08.830Z,30
2018-05-03T05:05:49.231Z,35
2018-05-03T05:06:29.786Z,55
2018-05-03T05:07:10.043Z,65
2018-05-03T05:07:50.633Z,50
2018-05-03T05:08:30.966Z,50
2018-05-03T05:09:11.401Z,90
2018-05-03T05:09:51.745Z,105
2018-05-03T05:10:32.207Z,95
2018-05-03T05:11:12.578Z,100
2018-05-03T05:11:52.963Z,95
2018-05-03T05:12:33.428Z,100
2018-05-03T05:13:13.825Z,85
2018-05-03T05:13:54.176Z,75
2018-05-03T05:14:34.511Z,70
2018-05-03T05:15:15.532Z,70
2018-05-03T05:15:55.835Z,105
2018-05-03T05:16:36.321Z,90
2018-05-03T05:17:17.542Z,105
2018-05-03T05:17:57.795Z,120
2018-05-03T05:18:38.938Z,120
2018-05-03T05:19:19.277Z,100
2018-05-03T05:20:00.062Z,90
2018-05-03T05:20:40.561Z,85
2018-05-03T05:21:21.243Z,85
2018-05-03T05:22:01.751Z,85
2018-05-03T05:22:42.095Z,85
2018-05-03T05:23:22.458Z,95
2018-05-03T05:24:03.093Z,140
2018-05-03T05:24:43.474Z,135
2018-05-03T05:25:25.623Z,120
2018-05-03T05:26:06.003Z,125
2018-05-03T05:26:46.380Z,165
2018-05-03T05:27:26.986Z,125
2018-05-03T05:28:07.481Z,135
2018-05-03T05:28:47.890Z,185
2018-05-03T05:29:30.287Z,160
2018-05-03T05:30:10.682Z,160
2018-05-03T05:30:52.071Z,135
2018-05-03T05:31:32.545Z,115
2018-05-03T05:32:12.949Z,125
2018-05-03T05:32:53.387Z,155
2018-05-03T05:33:33.723Z,190
2018-05-03T05:34:14.416Z,180
2018-05-03T05:34:55.727Z,245
2018-05-03T05:35:36.280Z,215
2018-05-03T05:36:17.046Z,230
2018-05-03T05:36:57.987Z,275
2018-05-03T05:37:38.497Z,285
2018-05-03T05:38:19.878Z,270
2018-05-03T05:39:00.316Z,240
2018-05-03T05:39:40.772Z,245
2018-05-03T05:40:21.675Z,215
2018-05-03T05:41:01.533Z,240
2018-05-03T05:41:42.597Z,300
2018-05-03T05:42:23.042Z,425
2018-05-03T05:43:04.217Z,345
2018-05-03T05:43:45.330Z,400
2018-05-03T05:44:26.298Z,675
2018-05-03T05:45:10.206Z,630
2018-05-03T05:45:50.723Z,600
2018-05-03T05:46:33.266Z,570
2018-05-03T05:47:12.939Z,595
2018-05-03T05:47:53.402Z,505
2018-05-03T05:48:34.603Z,450
2018-05-03T05:49:14.885Z,355
2018-05-03T05:49:55.376Z,420
2018-05-03T05:50:36.067Z,330
2018-05-03T05:51:16.647Z,295
2018-05-03T05:51:57.047Z,370
2018-05-03T05:52:38.588Z,280
2018-05-03T05:53:19.706Z,230
2018-05-03T05:54:00.166Z,215
2018-05-03T05:54:40.937Z,530
2018-05-03T05:55:21.523Z,340
2018-05-03T05:56:01.854Z,190
2018-05-03T05:56:42.694Z,355
2018-05-03T05:57:23.018Z,600
2018-05-03T05:58:04.332Z,680
2018-05-03T05:58:45.263Z,665
2018-05-03T05:59:25.756Z,625
2018-05-03T06:00:06.234Z,635
2018-05-03T06:00:46.944Z,630
2018-05-03T06:01:27.318Z,735
2018-05-03T06:02:07.948Z,705
2018-05-03T06:04:30.552Z,720
2018-05-03T06:05:11.188Z,730
2018-05-03T06:05:51.628Z,695
2018-05-03T06:06:32.424Z,685
2018-05-03T06:07:12.824Z,640
2018-05-03T06:07:53.130Z,645
2018-05-03T06:08:33.764Z,735
2018-05-03T06:09:14.417Z,760
2018-05-03T06:09:55.018Z,745
2018-05-03T06:10:35.526Z,740
2018-05-03T06:11:15.975Z,680
2018-05-03T06:11:56.733Z,615
2018-05-03T06:12:37.436Z,465
2018-05-03T06:13:18.082Z,670
2018-05-03T06:13:58.573Z,735
2018-05-03T06:14:38.909Z,845
2018-05-03T06:15:20.322Z,885
2018-05-03T06:16:00.982Z,880
2018-05-03T06:16:42.048Z,855
2018-05-03T06:17:22.598Z,820
2018-05-03T06:18:02.989Z,830
2018-05-03T06:18:43.574Z,805
2018-05-03T06:19:26.286Z,730
2018-05-03T06:20:08.022Z,550
2018-05-03T06:20:48.563Z,580
2018-05-03T06:21:29.320Z,535
2018-05-03T06:22:10.132Z,520
2018-05-03T06:22:50.573Z,490
2018-05-03T06:23:31.005Z,490
2018-05-03T06:24:11.456Z,440
2018-05-03T06:24:52.181Z,270
2018-05-03T06:25:35.811Z,720
2018-05-03T06:26:16.584Z,995
2018-05-03T06:26:57.287Z,990
2018-05-03T06:27:37.765Z,1010
2018-05-03T06:28:18.395Z,1015
2018-05-03T06:29:00.744Z,985
2018-05-03T06:29:41.094Z,945
2018-05-03T06:30:21.658Z,925
2018-05-03T06:31:02.236Z,925
2018-05-03T06:31:42.744Z,980
2018-05-03T06:32:23.470Z,995
2018-05-03T06:33:03.940Z,1005
2018-05-03T06:33:44.717Z,855
2018-05-03T06:34:24.818Z,680
2018-05-03T06:35:05.574Z,750
2018-05-03T06:35:45.956Z,600
2018-05-03T06:36:26.777Z,630
2018-05-03T06:37:07.872Z,530
2018-05-03T06:37:49.119Z,1015
2018-05-03T06:38:29.531Z,780
2018-05-03T06:39:10.569Z,1040
2018-05-03T06:39:51.364Z,1000
2018-05-03T06:40:31.462Z,990
2018-05-03T06:41:11.993Z,1015
2018-05-03T06:41:55.573Z,1140
2018-05-03T06:42:35.843Z,1125
2018-05-03T06:43:17.398Z,1035
2018-05-03T06:43:57.222Z,1125
2018-05-03T06:44:38.190Z,1210
2018-05-03T06:45:18.930Z,1220
2018-05-03T06:45:59.809Z,1225
2018-05-03T06:46:40.292Z,1240
2018-05-03T06:47:21.333Z,1215
2018-05-03T06:48:02.615Z,1025
2018-05-03T06:48:44.031Z,765
2018-05-03T06:49:23.860Z,595
2018-05-03T06:50:05.914Z,475
2018-05-03T06:50:46.538Z,525
2018-05-03T06:51:27.446Z,515
2018-05-03T06:52:07.916Z,515
2018-05-03T06:52:49.416Z,500
2018-05-03T06:53:29.707Z,535
2018-05-03T06:54:10.166Z,520
2018-05-03T06:54:51.376Z,515
2018-05-03T06:55:31.951Z,520
2018-05-03T06:56:12.940Z,535
2018-05-03T06:56:53.505Z,475
2018-05-03T06:57:34.118Z,460
2018-05-03T06:58:14.830Z,380
2018-05-03T06:58:55.431Z,310
2018-05-03T06:59:36.297Z,325
2018-05-03T07:00:17.120Z,320
2018-05-03T07:00:57.735Z,280
2018-05-03T07:01:38.339Z,405
2018-05-03T07:02:18.864Z,345
2018-05-03T07:02:59.092Z,300
2018-05-03T07:03:39.582Z,355
2018-05-03T07:04:20.021Z,435
2018-05-03T07:05:00.380Z,425
2018-05-03T07:05:41.240Z,415
2018-05-03T07:06:22.186Z,535
2018-05-03T07:07:02.957Z,530
2018-05-03T07:07:43.430Z,520
2018-05-03T07:08:23.729Z,405
2018-05-03T07:09:04.265Z,365
2018-05-03T07:09:45.948Z,330
2018-05-03T07:10:26.315Z,240
2018-05-03T07:11:06.675Z,300
2018-05-03T07:11:48.702Z,320
2018-05-03T07:12:28.876Z,255
2018-05-03T07:13:09.797Z,235
2018-05-03T07:13:49.870Z,280
2018-05-03T07:14:31.434Z,275
2018-05-03T07:15:11.225Z,295
2018-05-03T07:15:51.440Z,310
2018-05-03T07:16:31.899Z,300
2018-05-03T07:17:12.845Z,255
2018-05-03T07:17:53.131Z,275
2018-05-03T07:18:33.628Z,270
2018-05-03T07:19:14.116Z,275
2018-05-03T07:19:54.605Z,270
2018-05-03T07:20:35.342Z,260
2018-05-03T07:21:15.925Z,275
2018-05-03T07:21:56.598Z,230
2018-05-03T07:22:37.329Z,260
2018-05-03T07:23:17.869Z,230
2018-05-03T07:23:58.496Z,205
2018-05-03T07:24:38.818Z,200
2018-05-03T07:25:19.237Z,175
2018-05-03T07:26:00.449Z,175
2018-05-03T07:26:41.082Z,200
2018-05-03T07:27:21.623Z,205
2018-05-03T07:28:02.393Z,185
2018-05-03T07:28:43.126Z,205
2018-05-03T07:29:23.847Z,235
2018-05-03T07:30:05.611Z,225
2018-05-03T07:30:46.944Z,225
2018-05-03T07:31:27.055Z,190
2018-05-03T07:32:10.494Z,165
2018-05-03T07:32:51.488Z,205
2018-05-03T07:33:32.865Z,210
2018-05-03T07:34:14.439Z,205
2018-05-03T07:34:55.005Z,175
2018-05-03T07:35:35.200Z,170
2018-05-03T07:36:19.335Z,165
2018-05-03T07:36:59.151Z,160
2018-05-03T07:37:40.459Z,160
2018-05-03T07:38:20.848Z,145
2018-05-03T07:39:01.826Z,140
2018-05-03T07:39:41.887Z,155
2018-05-03T07:40:22.828Z,150
2018-05-03T07:41:04.045Z,170
2018-05-03T07:41:44.856Z,175
2018-05-03T07:42:26.049Z,165
2018-05-03T07:43:06.559Z,160
2018-05-03T07:43:46.929Z,135
2018-05-03T07:44:27.371Z,130
2018-05-03T07:45:07.977Z,130
2018-05-03T07:45:49.051Z,145
2018-05-03T07:46:29.215Z,140
2018-05-03T07:47:09.748Z,130
2018-05-03T07:47:51.328Z,120
2018-05-03T07:48:31.719Z,120
2018-05-03T07:49:12.282Z,115
2018-05-03T07:49:52.930Z,115
2018-05-03T07:50:33.535Z,120
2018-05-03T07:51:14.011Z,155
2018-05-03T07:51:54.770Z,155
2018-05-03T07:52:35.574Z,145
2018-05-03T07:53:21.381Z,140
2018-05-03T07:54:01.967Z,155
2018-05-03T07:54:43.851Z,155
2018-05-03T07:55:24.444Z,165
2018-05-03T07:56:05.385Z,160
2018-05-03T07:56:45.602Z,155
2018-05-03T07:57:27.169Z,150
2018-05-03T07:58:07.139Z,135
2018-05-03T07:58:48.184Z,130
2018-05-03T07:59:28.315Z,130
2018-05-03T08:00:08.922Z,125
2018-05-03T08:00:50.171Z,120
2018-05-03T08:03:32.079Z,120
2018-05-03T08:04:19.012Z,120
2018-05-03T08:05:06.579Z,120
2018-05-03T08:06:08.485Z,115
2018-05-03T08:06:51.557Z,115
2018-05-03T08:07:31.952Z,115
2018-05-03T08:08:15.047Z,110
2018-05-03T08:08:55.492Z,105
2018-05-03T08:09:50.510Z,100
2018-05-03T08:12:14.171Z,100
2018-05-03T08:13:12.158Z,100
2018-05-03T08:13:54.531Z,100
2018-05-03T08:18:40.575Z,95
2018-05-03T08:19:27.530Z,95
2018-05-03T08:22:22.115Z,100
2018-05-03T08:23:02.518Z,100
2018-05-03T08:23:45.760Z,100
2018-05-03T08:24:47.937Z,100
2018-05-03T08:45:57.270Z,85
2018-05-03T08:46:38.010Z,85
2018-05-03T08:47:18.414Z,90
2018-05-03T08:47:59.014Z,85
2018-05-03T08:48:42.123Z,80
2018-05-03T08:49:22.589Z,80
2018-05-03T08:50:03.012Z,85
2018-05-03T08:50:43.758Z,85
2018-05-03T08:51:24.055Z,90
2018-05-03T08:52:04.530Z,90
2018-05-03T08:52:45.000Z,115
2018-05-03T08:53:25.643Z,95
2018-05-03T08:54:05.910Z,90
2018-05-03T08:54:46.325Z,85
2018-05-03T08:55:26.872Z,85
2018-05-03T08:56:07.535Z,85
2018-05-03T08:56:47.977Z,100
2018-05-03T08:57:29.121Z,95
2018-05-03T08:58:09.581Z,105
2018-05-03T09:02:35.622Z,85
2018-05-03T09:03:16.163Z,85
2018-05-03T09:03:56.832Z,85
2018-05-03T09:04:37.485Z,85
2018-05-03T09:05:18.081Z,85
2018-05-03T09:05:59.229Z,85
2018-05-03T09:06:39.133Z,85
2018-05-03T09:07:19.599Z,85
2018-05-03T09:08:00.223Z,85
2018-05-03T09:08:40.689Z,85
2018-05-03T09:09:24.625Z,85
2018-05-03T09:10:04.946Z,75
2018-05-03T09:10:45.741Z,75
2018-05-03T09:11:26.199Z,75
2018-05-03T09:12:06.768Z,75
2018-05-03T09:12:47.454Z,75
2018-05-03T09:13:28.313Z,80
2018-05-03T09:14:08.680Z,80
2018-05-03T09:14:49.520Z,80
2018-05-03T09:15:29.907Z,80
2018-05-03T09:16:10.862Z,75
2018-05-03T09:16:51.368Z,80
2018-05-03T09:17:31.754Z,80
2018-05-03T09:18:12.282Z,85
2018-05-03T09:18:53.118Z,85
2018-05-03T09:19:33.450Z,100
2018-05-03T09:20:14.700Z,95
2018-05-03T09:20:56.134Z,85
2018-05-03T09:21:36.618Z,85
2018-05-03T09:22:17.380Z,90
2018-05-03T09:22:58.127Z,85
2018-05-03T09:23:38.862Z,80
2018-05-03T09:24:19.340Z,80
2018-05-03T09:25:00.121Z,85
2018-05-03T09:25:40.474Z,80
2018-05-03T09:26:20.859Z,85
2018-05-03T09:28:33.790Z,85
2018-05-03T09:29:14.125Z,85
2018-05-03T09:29:54.552Z,85
2018-05-03T09:30:35.089Z,80
2018-05-03T09:31:15.470Z,85
2018-05-03T09:31:55.897Z,90
2018-05-03T09:32:36.490Z,85
2018-05-03T09:33:17.376Z,85
2018-05-03T09:33:58.529Z,85
2018-05-03T09:34:39.043Z,85
2018-05-03T09:35:19.477Z,85
2018-05-03T09:35:59.872Z,85
2018-05-03T09:36:40.338Z,85
2018-05-03T09:37:20.782Z,85
2018-05-03T09:38:01.396Z,80
2018-05-03T09:38:42.040Z,80
2018-05-03T09:39:22.476Z,80
2018-05-03T09:40:03.044Z,85
2018-05-03T09:40:44.184Z,85
2018-05-03T09:41:25.392Z,90
2018-05-03T09:42:06.281Z,80
2018-05-03T09:42:47.056Z,85
2018-05-03T09:43:27.509Z,90
2018-05-03T09:44:08.226Z,85
2018-05-03T09:44:49.333Z,100
2018-05-03T09:45:30.188Z,100
2018-05-03T09:46:10.727Z,90
2018-05-03T09:46:51.111Z,90
2018-05-03T09:47:31.500Z,85
2018-05-03T09:48:11.940Z,90
2018-05-03T09:48:52.301Z,90
2018-05-03T09:49:32.804Z,90
2018-05-03T09:50:13.446Z,110
2018-05-03T09:50:54.212Z,110
2018-05-03T09:51:35.623Z,110
2018-05-03T09:52:16.192Z,105
2018-05-03T09:52:56.617Z,90
2018-05-03T09:53:38.237Z,90
2018-05-03T09:54:19.123Z,95
2018-05-03T09:55:00.258Z,105
2018-05-03T09:55:40.832Z,100
2018-05-03T09:56:22.566Z,95
2018-05-03T09:57:02.493Z,100
2018-05-03T09:57:44.024Z,100
2018-05-03T09:58:24.494Z,95
2018-05-03T09:59:05.918Z,105
2018-05-03T09:59:48.315Z,95
2018-05-03T10:00:29.711Z,95
2018-05-03T10:01:11.212Z,95
2018-05-03T10:01:52.144Z,100
2018-05-03T10:02:32.918Z,100
2018-05-03T10:03:16.134Z,100
2018-05-03T10:04:01.240Z,100
2018-05-03T10:42:30.333Z,80
2018-05-03T10:50:09.610Z,75
2018-05-03T10:50:51.311Z,75
2018-05-03T10:51:31.597Z,70
2018-05-03T10:52:13.038Z,80
2018-05-03T10:52:53.013Z,80
2018-05-03T10:53:33.767Z,75
2018-05-03T10:54:14.967Z,75
2018-05-03T10:54:55.767Z,70
2018-05-03T10:55:37.557Z,75
2018-05-03T10:56:18.261Z,85
2018-05-03T10:56:59.022Z,75
2018-05-03T10:57:40.165Z,75
2018-05-03T10:58:20.647Z,80
2018-05-03T10:59:02.588Z,85
2018-05-03T10:59:43.077Z,90
2018-05-03T11:00:26.009Z,95
2018-05-03T11:01:08.007Z,90
2018-05-03T11:01:48.964Z,95
2018-05-03T11:02:29.517Z,90
2018-05-03T11:03:10.243Z,100
2018-05-03T11:03:50.933Z,95
2018-05-03T11:04:31.680Z,95
2018-05-03T11:05:13.940Z,95
2018-05-03T11:05:54.605Z,85
2018-05-03T11:06:36.576Z,90
2018-05-03T11:07:22.239Z,90
2018-05-03T11:08:05.162Z,90
2018-05-03T11:08:45.909Z,90
2018-05-03T11:09:27.879Z,85
2018-05-03T11:10:07.947Z,80
2018-05-03T11:10:48.999Z,90
2018-05-03T11:11:30.145Z,90
2018-05-03T11:12:11.186Z,90
2018-05-03T11:12:52.259Z,80
2018-05-03T11:13:34.366Z,85
2018-05-03T11:14:14.455Z,95
2018-05-03T11:14:58.575Z,95
2018-05-03T11:15:39.084Z,90
2018-05-03T11:16:21.901Z,95
2018-05-03T11:17:02.422Z,95
2018-05-03T11:17:43.630Z,95
2018-05-03T11:18:24.550Z,95
2018-05-03T11:19:05.587Z,95
2018-05-03T11:19:46.618Z,90
2018-05-03T11:20:27.585Z,80
2018-05-03T11:21:09.880Z,75
2018-05-03T11:21:51.689Z,95
2018-05-03T11:23:15.834Z,95
2018-05-03T11:23:58.912Z,95
2018-05-03T11:24:38.652Z,95
2018-05-03T11:25:19.595Z,95
2018-05-03T11:26:02.755Z,95
2018-05-03T11:26:42.366Z,100
2018-05-03T11:27:24.014Z,95
2018-05-03T11:28:06.189Z,90
2018-05-03T11:28:49.847Z,85
2018-05-03T11:29:30.717Z,85
2018-05-03T11:30:11.369Z,90
2018-05-03T11:30:53.631Z,75
2018-05-03T11:31:34.620Z,80
2018-05-03T11:32:18.593Z,75
2018-05-03T11:32:59.513Z,80
2018-05-03T11:33:41.682Z,90
2018-05-03T11:34:23.625Z,90
2018-05-03T11:35:04.617Z,90
2018-05-03T11:35:45.499Z,90
2018-05-03T11:36:28.093Z,85
2018-05-03T11:37:08.584Z,80
2018-05-03T11:37:52.160Z,85
2018-05-03T11:38:37.261Z,75
2018-05-03T11:39:19.671Z,75
2018-05-03T11:40:00.837Z,75
2018-05-03T11:40:42.552Z,75
2018-05-03T11:41:22.732Z,85
2018-05-03T11:42:03.352Z,85
2018-05-03T11:42:43.885Z,90
2018-05-03T11:43:25.372Z,95
2018-05-03T11:44:07.122Z,85
2018-05-03T11:44:48.373Z,90
2018-05-03T11:45:29.798Z,90
2018-05-03T11:46:11.111Z,90
2018-05-03T11:46:51.304Z,90
2018-05-03T11:47:33.660Z,95
2018-05-03T11:48:14.579Z,100
2018-05-03T11:48:59.269Z,90
2018-05-03T11:49:41.272Z,80
2018-05-03T11:50:23.803Z,80
2018-05-03T11:51:04.150Z,80
2018-05-03T11:51:46.583Z,80
2018-05-03T11:52:28.088Z,80
2018-05-03T11:53:09.453Z,85
2018-05-03T11:53:51.365Z,90
2018-05-03T11:54:32.548Z,95
2018-05-03T11:55:13.962Z,95
2018-05-03T11:55:56.090Z,95
2018-05-03T11:56:36.182Z,95
2018-05-03T11:57:17.697Z,95
2018-05-03T11:58:00.524Z,95
2018-05-03T11:58:43.575Z,80
2018-05-03T11:59:24.442Z,75
2018-05-03T12:00:05.186Z,75
2018-05-03T12:00:46.282Z,75
2018-05-03T12:01:28.086Z,75
2018-05-03T12:02:08.181Z,80
2018-05-03T12:02:49.108Z,90
2018-05-03T12:03:31.343Z,90
2018-05-03T12:04:12.245Z,95
2018-05-03T12:04:53.565Z,95
2018-05-03T12:05:34.738Z,90
2018-05-03T12:06:15.299Z,85
2018-05-03T12:06:56.975Z,90
2018-05-03T12:07:38.608Z,90
2018-05-03T12:08:20.609Z,95
2018-05-03T12:09:03.127Z,90
2018-05-03T12:09:46.356Z,90
2018-05-03T12:10:27.610Z,90
2018-05-03T12:11:08.882Z,85
2018-05-03T12:11:49.379Z,85
2018-05-03T12:12:30.701Z,80
2018-05-03T12:13:12.607Z,80
2018-05-03T12:13:53.376Z,75
2018-05-03T12:14:35.973Z,75
2018-05-03T12:15:18.177Z,75
2018-05-03T12:15:58.784Z,75
2018-05-03T12:16:41.177Z,75
2018-05-03T12:17:22.623Z,75
2018-05-03T12:18:02.940Z,75
2018-05-03T12:18:43.887Z,75
2018-05-03T12:19:24.965Z,70
2018-05-03T12:20:06.384Z,70
2018-05-03T12:20:46.520Z,75
2018-05-03T12:21:28.341Z,80
2018-05-03T12:22:09.557Z,85
2018-05-03T12:22:50.482Z,90
2018-05-03T12:23:32.713Z,90
2018-05-03T12:24:13.932Z,70
2018-05-03T12:24:56.240Z,70
2018-05-03T12:25:37.249Z,75
2018-05-03T12:26:18.419Z,80
2018-05-03T12:27:00.278Z,75
2018-05-03T12:27:41.061Z,75
2018-05-03T12:28:21.960Z,75
2018-05-03T12:29:02.860Z,80
2018-05-03T12:29:43.061Z,75
2018-05-03T12:30:24.689Z,80
2018-05-03T12:31:04.472Z,75
2018-05-03T12:31:45.114Z,75
2018-05-03T12:32:26.926Z,75
2018-05-03T12:33:09.658Z,75
2018-05-03T12:33:51.631Z,75
2018-05-03T12:34:33.257Z,75
2018-05-03T12:35:15.272Z,75
2018-05-03T12:35:55.777Z,80
2018-05-03T12:36:36.885Z,80
2018-05-03T12:37:19.131Z,80
2018-05-03T12:38:00.885Z,75
2018-05-03T12:38:41.918Z,75
2018-05-03T12:39:23.448Z,75
2018-05-03T12:40:05.986Z,75
2018-05-03T12:40:47.610Z,75
2018-05-03T12:41:28.875Z,75
2018-05-03T12:42:09.547Z,75
2018-05-03T12:42:52.994Z,75
2018-05-03T12:43:35.360Z,75
2018-05-03T12:44:17.794Z,75
2018-05-03T12:44:58.699Z,75
2018-05-03T12:45:39.884Z,80
2018-05-03T12:46:20.930Z,80
2018-05-03T12:47:04.144Z,80
2018-05-03T12:47:45.428Z,80
2018-05-03T12:48:28.338Z,75